Time;durP1;ratioP1;P1;durP2;ratioP2;P2;SDS_P1;SDS_P2;PMS_P1;PMS_P2;Temp;Humidity;BMP_temperature;BMP_pressure;BME280_temperature;BME280_humidity;BME280_pressure;Samples;Min_cycle;Max_cycle;Signal;HPM_P1;HPM_P2
2022/09/27 00:01:06;;;;;;;20.05;13.63;;;;;;;;;;5037434;28;20060;-72
2022/09/27 00:03:31;;;;;;;19.33;13.55;;;;;;;;;;5037139;28;20013;-72
2022/09/27 00:06:04;;;;;;;17.67;12.20;;;;;;;;;;5055128;28;20029;-73
2022/09/27 00:08:31;;;;;;;19.02;12.50;;;;;;;;;;5055297;28;20443;-72
2022/09/27 00:11:04;;;;;;;14.45;11.98;;;;;;;;;;5053640;28;20096;-71
2022/09/27 00:13:29;;;;;;;17.60;12.13;;;;;;;;;;5055058;28;20021;-72
2022/09/27 00:15:56;;;;;;;14.80;12.15;;;;;;;;;;5055027;28;20019;-72
2022/09/27 00:18:21;;;;;;;14.75;11.60;;;;;;;;;;5054787;28;20059;-72
2022/09/27 00:20:46;;;;;;;16.00;11.50;;;;;;;;;;5054932;28;20057;-72
2022/09/27 00:23:12;;;;;;;17.05;12.57;;;;;;;;;;5054988;28;20029;-72
2022/09/27 00:25:38;;;;;;;16.77;12.32;;;;;;;;;;5054813;28;20066;-72
2022/09/27 00:28:03;;;;;;;17.75;12.98;;;;;;;;;;5054441;28;20033;-72
2022/09/27 00:30:29;;;;;;;17.60;12.38;;;;;;;;;;5036669;28;20025;-72
2022/09/27 00:32:54;;;;;;;15.90;11.82;;;;;;;;;;5052544;28;20028;-73
2022/09/27 00:35:20;;;;;;;14.80;11.50;;;;;;;;;;5053997;28;20486;-72
2022/09/27 00:37:47;;;;;;;14.15;10.88;;;;;;;;;;5053212;28;20029;-72
2022/09/27 00:40:12;;;;;;;16.40;11.70;;;;;;;;;;5054213;28;20371;-73
2022/09/27 00:42:38;;;;;;;14.23;11.43;;;;;;;;;;5053464;28;20032;-74
2022/09/27 00:45:12;;;;;;;14.25;10.95;;;;;;;;;;5035650;28;20029;-72
2022/09/27 00:47:40;;;;;;;13.57;10.32;;;;;;;;;;5054046;28;20036;-72
2022/09/27 00:50:12;;;;;;;13.63;9.88;;;;;;;;;;5054329;28;20435;-72
2022/09/27 00:52:42;;;;;;;14.77;10.32;;;;;;;;;;5036429;28;20159;-72
2022/09/27 00:55:11;;;;;;;12.33;9.97;;;;;;;;;;5054376;28;20108;-73
2022/09/27 00:57:37;;;;;;;12.40;10.23;;;;;;;;;;5035959;28;20028;-73
2022/09/27 01:00:08;;;;;;;11.48;9.88;;;;;;;;;;5054189;28;20070;-72
2022/09/27 01:02:35;;;;;;;12.45;10.30;;;;;;;;;;5052744;28;20037;-72
2022/09/27 01:05:01;;;;;;;13.00;10.75;;;;;;;;;;5053819;28;20032;-72
2022/09/27 01:07:26;;;;;;;12.82;9.90;;;;;;;;;;5053799;28;20041;-71
2022/09/27 01:09:52;;;;;;;13.25;10.75;;;;;;;;;;5035317;28;20024;-72
2022/09/27 01:12:37;;;;;;;12.95;10.10;;;;;;;;;;5036392;28;20025;-72
2022/09/27 01:15:21;;;;;;;14.27;10.43;;;;;;;;;;5035652;28;20029;-72
2022/09/27 01:17:47;;;;;;;13.70;10.45;;;;;;;;;;5035346;28;20115;-71
2022/09/27 01:20:15;;;;;;;15.48;10.40;;;;;;;;;;5052671;28;20056;-72
2022/09/27 01:22:47;;;;;;;15.45;10.95;;;;;;;;;;5053408;28;20032;-73
2022/09/27 01:25:40;;;;;;;16.05;12.25;;;;;;;;;;5052495;28;20565;-73
2022/09/27 01:28:25;;;;;;;16.52;11.45;;;;;;;;;;5052189;28;20037;-72
2022/09/27 01:31:05;;;;;;;14.40;10.80;;;;;;;;;;5035925;28;20424;-72
2022/09/27 01:33:31;;;;;;;;;;;;;;;;;;5052984;28;20032;-72
2022/09/27 01:36:02;;;;;;;13.00;10.13;;;;;;;;;;5035800;28;19905;-72
2022/09/27 01:38:41;;;;;;;13.15;10.13;;;;;;;;;;5052338;28;20263;-72
2022/09/27 01:41:09;;;;;;;;;;;;;;;;;;5052367;28;20485;-72
2022/09/27 01:43:43;;;;;;;12.18;10.00;;;;;;;;;;5053746;28;19948;-72
2022/09/27 01:46:35;;;;;;;12.50;9.50;;;;;;;;;;5035972;28;20383;-72
2022/09/27 01:49:17;;;;;;;13.30;9.50;;;;;;;;;;5035715;28;20033;-73
2022/09/27 01:51:46;;;;;;;14.27;10.27;;;;;;;;;;5053437;28;20541;-72
2022/09/27 01:54:15;;;;;;;11.73;9.43;;;;;;;;;;5053257;28;20032;-71
2022/09/27 01:57:15;;;;;;;14.68;10.05;;;;;;;;;;5040395;28;20036;-72
2022/09/27 01:59:44;;;;;;;13.15;10.20;;;;;;;;;;5035461;28;20082;-73
2022/09/27 02:02:32;;;;;;;13.32;9.45;;;;;;;;;;5053344;28;20111;-72
2022/09/27 02:05:34;;;;;;;10.38;8.73;;;;;;;;;;4999619;28;20121;-72
2022/09/27 02:08:15;;;;;;;9.93;8.68;;;;;;;;;;5035559;28;20128;-72
2022/09/27 02:10:42;;;;;;;10.50;8.45;;;;;;;;;;5035538;28;20028;-71
2022/09/27 02:13:20;;;;;;;10.75;8.98;;;;;;;;;;5053395;28;20020;-72
2022/09/27 02:16:04;;;;;;;9.73;8.77;;;;;;;;;;5035564;28;20087;-72
2022/09/27 02:19:00;;;;;;;8.77;7.85;;;;;;;;;;5035635;28;20053;-71
2022/09/27 02:21:31;;;;;;;10.32;8.98;;;;;;;;;;5035173;28;20033;-72
2022/09/27 02:24:00;;;;;;;9.55;8.55;;;;;;;;;;5035599;28;20028;-72
2022/09/27 02:26:30;;;;;;;11.68;9.07;;;;;;;;;;5037852;28;20020;-72
2022/09/27 02:28:56;;;;;;;11.68;9.63;;;;;;;;;;5056042;28;20025;-72
2022/09/27 02:31:27;;;;;;;11.05;8.30;;;;;;;;;;5038745;28;20025;-73
2022/09/27 02:33:58;;;;;;;10.45;8.48;;;;;;;;;;5039192;28;20119;-72
2022/09/27 02:36:24;;;;;;;10.10;9.05;;;;;;;;;;5038767;28;20036;-71
2022/09/27 02:38:50;;;;;;;13.90;8.95;;;;;;;;;;5063464;22;20113;-72
2022/09/27 02:41:20;;;;;;;14.10;9.50;;;;;;;;;;5017916;28;20056;-73
2022/09/27 02:43:47;;;;;;;12.27;8.55;;;;;;;;;;5056431;28;20036;-72
2022/09/27 02:46:13;;;;;;;10.02;8.02;;;;;;;;;;5037916;28;20032;-72
2022/09/27 02:48:46;;;;;;;10.25;8.52;;;;;;;;;;5054941;28;20696;-73
2022/09/27 02:51:21;;;;;;;11.82;8.52;;;;;;;;;;5038996;28;20163;-72
2022/09/27 02:54:07;;;;;;;14.02;8.77;;;;;;;;;;5038456;28;20086;-72
2022/09/27 02:57:00;;;;;;;13.23;9.15;;;;;;;;;;5056320;28;20455;-72
2022/09/27 02:59:44;;;;;;;14.23;9.07;;;;;;;;;;5056467;28;20080;-72
2022/09/27 03:02:31;;;;;;;11.07;8.68;;;;;;;;;;5053341;28;20029;-72
2022/09/27 03:05:29;;;;;;;9.15;8.25;;;;;;;;;;5055628;28;20037;-72
2022/09/27 03:07:54;;;;;;;9.13;8.10;;;;;;;;;;5056174;28;20057;-69
2022/09/27 03:10:21;;;;;;;8.48;7.65;;;;;;;;;;5037789;28;20059;-71
2022/09/27 03:12:47;;;;;;;8.32;7.53;;;;;;;;;;5037951;28;20045;-70
2022/09/27 03:15:12;;;;;;;8.63;7.65;;;;;;;;;;5037960;28;20399;-71
2022/09/27 03:17:56;;;;;;;8.15;7.35;;;;;;;;;;5056026;28;20043;-71
2022/09/27 03:20:24;;;;;;;8.00;7.20;;;;;;;;;;5056034;28;20036;-70
2022/09/27 03:23:09;;;;;;;8.25;7.30;;;;;;;;;;5041215;28;20359;-69
2022/09/27 03:25:35;;;;;;;7.60;6.88;;;;;;;;;;5055744;28;20043;-70
2022/09/27 03:28:00;;;;;;;7.50;6.78;;;;;;;;;;5054280;28;20017;-71
2022/09/27 03:30:26;;;;;;;8.25;7.03;;;;;;;;;;5038067;28;20494;-72
2022/09/27 03:32:52;;;;;;;7.32;6.63;;;;;;;;;;5037856;28;20017;-72
2022/09/27 03:35:29;;;;;;;7.88;6.93;;;;;;;;;;5056004;28;20036;-72
2022/09/27 03:37:55;;;;;;;8.00;6.35;;;;;;;;;;5037257;28;20043;-72
2022/09/27 03:40:20;;;;;;;8.50;7.70;;;;;;;;;;5055553;28;20063;-71
2022/09/27 03:42:48;;;;;;;8.85;7.95;;;;;;;;;;5055599;28;20033;-73
2022/09/27 03:45:14;;;;;;;8.23;7.43;;;;;;;;;;5038200;28;20112;-72
2022/09/27 03:47:40;;;;;;;7.88;7.15;;;;;;;;;;5036929;28;20198;-71
2022/09/27 03:50:07;;;;;;;8.52;7.72;;;;;;;;;;5037159;28;20024;-73
2022/09/27 03:52:33;;;;;;;10.27;7.20;;;;;;;;;;5054965;28;20021;-72
2022/09/27 03:54:58;;;;;;;7.80;7.07;;;;;;;;;;5037027;28;20483;-70
2022/09/27 03:57:24;;;;;;;8.00;7.30;;;;;;;;;;5036712;28;20033;-73
2022/09/27 03:59:50;;;;;;;7.75;7.05;;;;;;;;;;5036329;28;20027;-73
2022/09/27 04:02:37;;;;;;;7.80;6.90;;;;;;;;;;5054120;28;20110;-73
2022/09/27 04:05:36;;;;;;;7.90;7.10;;;;;;;;;;5042825;28;20047;-72
2022/09/27 04:08:06;;;;;;;9.25;7.60;;;;;;;;;;5037430;28;20299;-73
2022/09/27 04:10:32;;;;;;;9.98;7.72;;;;;;;;;;5037363;28;20428;-74
2022/09/27 04:12:58;;;;;;;8.43;7.45;;;;;;;;;;5036680;28;20100;-74
2022/09/27 04:15:26;;;;;;;8.63;7.80;;;;;;;;;;5036662;28;20087;-73
2022/09/27 04:18:11;;;;;;;8.55;7.20;;;;;;;;;;5054600;28;20372;-74
2022/09/27 04:20:56;;;;;;;8.57;7.68;;;;;;;;;;5046335;28;20566;-72
2022/09/27 04:23:22;;;;;;;8.80;7.40;;;;;;;;;;5033903;28;20112;-72
2022/09/27 04:25:50;;;;;;;7.75;6.97;;;;;;;;;;5032873;28;20021;-73
2022/09/27 04:28:45;;;;;;;7.85;7.05;;;;;;;;;;5048894;28;20411;-73
2022/09/27 04:31:10;;;;;;;7.93;7.07;;;;;;;;;;5031906;28;20032;-73
2022/09/27 04:33:54;;;;;;;8.73;7.18;;;;;;;;;;5050673;28;20134;-74
2022/09/27 04:36:31;;;;;;;8.18;7.05;;;;;;;;;;5049153;28;20421;-72
2022/09/27 04:39:07;;;;;;;9.00;7.45;;;;;;;;;;5050202;28;20386;-72
2022/09/27 04:41:36;;;;;;;9.85;7.60;;;;;;;;;;5050728;28;20072;-73
2022/09/27 04:44:02;;;;;;;10.45;7.53;;;;;;;;;;5033457;28;20561;-73
2022/09/27 04:46:30;;;;;;;9.02;7.80;;;;;;;;;;5017018;28;20056;-73
2022/09/27 04:48:58;;;;;;;10.18;9.15;;;;;;;;;;5032607;28;20352;-73
2022/09/27 04:51:23;;;;;;;10.90;8.85;;;;;;;;;;5050221;28;20040;-73
2022/09/27 04:53:50;;;;;;;10.77;8.95;;;;;;;;;;5031605;28;20017;-73
2022/09/27 04:56:16;;;;;;;8.80;7.93;;;;;;;;;;5017140;28;20039;-73
2022/09/27 04:58:42;;;;;;;8.63;7.47;;;;;;;;;;5011386;28;20025;-72
2022/09/27 05:01:08;;;;;;;15.25;10.68;;;;;;;;;;5028802;28;20547;-73
2022/09/27 05:03:52;;;;;;;14.23;10.52;;;;;;;;;;5029617;28;20036;-73
2022/09/27 05:06:18;;;;;;;13.85;10.88;;;;;;;;;;5028847;28;20033;-73
2022/09/27 05:08:44;;;;;;;12.43;9.80;;;;;;;;;;5011427;28;20098;-73
2022/09/27 05:11:30;;;;;;;12.32;8.35;;;;;;;;;;5010695;28;20028;-73
2022/09/27 05:14:15;;;;;;;9.23;8.23;;;;;;;;;;5028903;28;20107;-72
2022/09/27 05:17:01;;;;;;;10.85;8.20;;;;;;;;;;4987707;28;20470;-73
2022/09/27 05:19:55;;;;;;;10.25;8.75;;;;;;;;;;4957302;28;20043;-73
2022/09/27 05:22:31;;;;;;;13.75;10.70;;;;;;;;;;5010916;28;20033;-73
2022/09/27 05:24:57;;;;;;;16.73;12.32;;;;;;;;;;5010937;28;20518;-72
2022/09/27 05:27:23;;;;;;;14.73;11.02;;;;;;;;;;5010945;28;20025;-73
2022/09/27 05:29:50;;;;;;;10.20;8.82;;;;;;;;;;5030422;28;20033;-73
2022/09/27 05:32:20;;;;;;;10.25;7.70;;;;;;;;;;5014642;28;20014;-73
2022/09/27 05:34:53;;;;;;;11.55;8.25;;;;;;;;;;4998969;28;20025;-72
2022/09/27 05:37:18;;;;;;;13.48;9.80;;;;;;;;;;5014522;28;20392;-73
2022/09/27 05:39:45;;;;;;;8.85;7.95;;;;;;;;;;5014445;28;20046;-73
2022/09/27 05:42:14;;;;;;;7.78;6.97;;;;;;;;;;5014918;28;20438;-72
2022/09/27 05:44:40;;;;;;;7.68;6.97;;;;;;;;;;5015619;28;20035;-73
2022/09/27 05:47:10;;;;;;;7.28;6.45;;;;;;;;;;5033313;28;20033;-73
2022/09/27 05:49:38;;;;;;;8.27;6.90;;;;;;;;;;5015698;28;20018;-72
2022/09/27 05:52:03;;;;;;;6.38;5.78;;;;;;;;;;5015495;28;20275;-73
2022/09/27 05:54:29;;;;;;;8.82;5.90;;;;;;;;;;5015372;28;20372;-72
2022/09/27 05:56:59;;;;;;;6.90;6.30;;;;;;;;;;5016003;28;20037;-73
2022/09/27 05:59:46;;;;;;;5.68;5.15;;;;;;;;;;5016645;28;20028;-73
2022/09/27 06:02:35;;;;;;;6.67;5.43;;;;;;;;;;5036924;28;20487;-73
2022/09/27 06:05:36;;;;;;;6.25;5.70;;;;;;;;;;5036086;28;20038;-72
2022/09/27 06:08:20;;;;;;;7.65;5.93;;;;;;;;;;5034833;28;20538;-73
2022/09/27 06:10:48;;;;;;;8.20;5.90;;;;;;;;;;5017148;28;20506;-73
2022/09/27 06:13:14;;;;;;;6.55;5.85;;;;;;;;;;5017508;28;20017;-73
2022/09/27 06:15:42;;;;;;;6.50;5.82;;;;;;;;;;5034997;28;20029;-72
2022/09/27 06:18:09;;;;;;;7.28;6.57;;;;;;;;;;5017096;28;20032;-72
2022/09/27 06:20:36;;;;;;;7.95;6.97;;;;;;;;;;5017569;28;20061;-73
2022/09/27 06:23:06;;;;;;;7.95;6.68;;;;;;;;;;5035660;28;20064;-73
2022/09/27 06:25:32;;;;;;;7.05;6.35;;;;;;;;;;5018990;28;20029;-73
2022/09/27 06:28:27;;;;;;;6.82;6.20;;;;;;;;;;5019049;28;20083;-73
2022/09/27 06:30:54;;;;;;;6.32;5.82;;;;;;;;;;5018805;28;20052;-73
2022/09/27 06:33:43;;;;;;;6.63;5.75;;;;;;;;;;5023261;28;20061;-72
2022/09/27 06:36:08;;;;;;;7.10;6.50;;;;;;;;;;5018755;28;20064;-72
2022/09/27 06:38:36;;;;;;;7.85;6.55;;;;;;;;;;5018677;28;20447;-73
2022/09/27 06:41:11;;;;;;;6.13;5.43;;;;;;;;;;5036406;28;20029;-73
2022/09/27 06:43:52;;;;;;;6.13;5.38;;;;;;;;;;5061974;22;20107;-72
2022/09/27 06:46:38;;;;;;;5.50;5.10;;;;;;;;;;5055919;28;20111;-72
2022/09/27 06:49:10;;;;;;;4.97;4.60;;;;;;;;;;5056515;28;20111;-72
2022/09/27 06:51:37;;;;;;;5.10;4.70;;;;;;;;;;5038251;28;20121;-72
2022/09/27 06:54:03;;;;;;;4.97;4.60;;;;;;;;;;5055195;28;20049;-72
2022/09/27 06:56:28;;;;;;;4.53;4.13;;;;;;;;;;5038144;28;20037;-72
2022/09/27 07:01:41;;;;;;;5.68;4.55;;;;;;;;;;5056223;28;20029;-71
2022/09/27 07:04:37;;;;;;;5.15;4.70;;;;;;;;;;5038089;28;20459;-71
2022/09/27 07:07:08;;;;;;;5.60;5.10;;;;;;;;;;5037911;28;20395;-72
2022/09/27 07:09:39;;;;;;;4.82;4.53;;;;;;;;;;5037973;28;20463;-71
2022/09/27 07:12:05;;;;;;;4.90;4.50;;;;;;;;;;5037180;28;20029;-72
2022/09/27 07:14:32;;;;;;;6.75;5.47;;;;;;;;;;5054701;28;20029;-72
2022/09/27 07:16:58;;;;;;;5.68;5.07;;;;;;;;;;5037798;28;20032;-72
2022/09/27 07:19:25;;;;;;;4.78;4.40;;;;;;;;;;5054444;28;20021;-72
2022/09/27 07:21:51;;;;;;;4.45;4.05;;;;;;;;;;5054339;28;20055;-72
2022/09/27 07:24:17;;;;;;;5.13;4.50;;;;;;;;;;5054269;28;20017;-72
2022/09/27 07:26:42;;;;;;;5.10;4.70;;;;;;;;;;5037630;28;20028;-72
2022/09/27 07:29:10;;;;;;;4.97;4.18;;;;;;;;;;5054209;28;20009;-72
2022/09/27 07:31:36;;;;;;;4.40;4.03;;;;;;;;;;5037511;28;20033;-72
2022/09/27 07:34:02;;;;;;;4.05;3.75;;;;;;;;;;5054102;28;20021;-73
2022/09/27 07:36:29;;;;;;;4.72;4.35;;;;;;;;;;5053906;28;20029;-73
2022/09/27 07:38:57;;;;;;;5.50;5.00;;;;;;;;;;5054016;28;20078;-73
2022/09/27 07:41:23;;;;;;;5.55;4.95;;;;;;;;;;5037333;28;20032;-73
2022/09/27 07:43:48;;;;;;;10.15;8.48;;;;;;;;;;5037129;28;20487;-73
2022/09/27 07:46:14;;;;;;;6.15;5.57;;;;;;;;;;5037212;28;20380;-73
2022/09/27 07:49:05;;;;;;;4.57;4.18;;;;;;;;;;5052769;28;20079;-72
2022/09/27 07:51:43;;;;;;;4.53;4.15;;;;;;;;;;5055098;28;20490;-73
2022/09/27 07:54:24;;;;;;;4.00;3.60;;;;;;;;;;5037021;28;20045;-73
2022/09/27 07:57:11;;;;;;;4.15;3.80;;;;;;;;;;5037025;28;20487;-74
2022/09/27 07:59:45;;;;;;;4.65;4.25;;;;;;;;;;5054878;28;20040;-73
2022/09/27 08:02:15;;;;;;;5.72;5.07;;;;;;;;;;5036840;28;20028;-72
2022/09/27 08:04:46;;;;;;;9.05;7.13;;;;;;;;;;5020621;28;20429;-71
2022/09/27 08:07:12;;;;;;;8.75;4.90;;;;;;;;;;5036806;28;20024;-71
2022/09/27 08:09:39;;;;;;;3.83;3.50;;;;;;;;;;5053406;28;20021;-72
2022/09/27 08:12:04;;;;;;;6.82;3.72;;;;;;;;;;5036784;28;20021;-72
2022/09/27 08:14:30;;;;;;;4.07;2.65;;;;;;;;;;5053349;28;20017;-72
2022/09/27 08:16:56;;;;;;;3.05;2.70;;;;;;;;;;5053221;28;20039;-72
2022/09/27 08:19:28;;;;;;;3.60;3.30;;;;;;;;;;5054521;28;20032;-72
2022/09/27 08:22:12;;;;;;;4.25;3.95;;;;;;;;;;5054842;28;20114;-71
2022/09/27 08:24:52;;;;;;;3.08;2.88;;;;;;;;;;5035951;28;20029;-71
2022/09/27 08:27:41;;;;;;;3.97;3.10;;;;;;;;;;5036421;28;20491;-71
2022/09/27 08:30:21;;;;;;;3.28;2.42;;;;;;;;;;5036441;28;20039;-72
2022/09/27 08:32:47;;;;;;;2.05;1.95;;;;;;;;;;5054259;28;20112;-71
2022/09/27 08:35:14;;;;;;;2.53;2.42;;;;;;;;;;5052942;28;20066;-72
2022/09/27 08:37:39;;;;;;;3.80;3.50;;;;;;;;;;5054244;28;20021;-72
2022/09/27 08:40:06;;;;;;;3.40;3.03;;;;;;;;;;5052865;28;20516;-72
2022/09/27 08:42:54;;;;;;;5.68;5.15;;;;;;;;;;5019637;28;20128;-72
2022/09/27 08:45:23;;;;;;;3.10;2.90;;;;;;;;;;5057474;23;20049;-72
2022/09/27 08:47:53;;;;;;;2.28;2.17;;;;;;;;;;5069267;28;20039;-72
2022/09/27 08:50:19;;;;;;;;;;;;;;;;;;5069808;28;20032;-72
2022/09/27 08:52:47;;;;;;;2.00;1.90;;;;;;;;;;5053237;28;19905;-71
2022/09/27 08:55:36;;;;;;;2.20;2.10;;;;;;;;;;5069288;28;20021;-72
2022/09/27 08:58:11;;;;;;;2.28;1.73;;;;;;;;;;5043026;28;20041;-72
2022/09/27 09:00:37;;;;;;;2.10;1.90;;;;;;;;;;5069169;28;20056;-72
2022/09/27 09:03:03;;;;;;;1.88;1.70;;;;;;;;;;5069320;28;20040;-72
2022/09/27 09:05:33;;;;;;;1.88;1.77;;;;;;;;;;5052474;28;20119;-72
2022/09/27 09:08:11;;;;;;;1.88;1.73;;;;;;;;;;5069051;28;20028;-72
2022/09/27 09:13:51;;;;;;;1.70;1.60;;;;;;;;;;5047167;28;20032;-71
2022/09/27 09:16:35;;;;;;;1.90;1.80;;;;;;;;;;5035751;28;20031;-71
2022/09/27 09:19:10;;;;;;;1.60;1.50;;;;;;;;;;5069280;28;20032;-71
2022/09/27 09:21:55;;;;;;;1.60;1.50;;;;;;;;;;5053223;28;20029;-72
2022/09/27 09:24:21;;;;;;;2.03;1.50;;;;;;;;;;5053504;28;20029;-72
2022/09/27 09:26:46;;;;;;;1.60;1.50;;;;;;;;;;5068910;28;20032;-72
2022/09/27 09:29:15;;;;;;;2.28;1.83;;;;;;;;;;5053571;28;20456;-72
2022/09/27 09:31:45;;;;;;;1.70;1.50;;;;;;;;;;5069046;28;20029;-71
2022/09/27 09:34:29;;;;;;;2.10;2.00;;;;;;;;;;5070496;28;20021;-73
2022/09/27 09:36:59;;;;;;;1.40;1.40;;;;;;;;;;5073021;28;20120;-72
2022/09/27 09:39:27;;;;;;;1.83;1.73;;;;;;;;;;5072966;28;20485;-73
2022/09/27 09:42:08;;;;;;;2.05;1.50;;;;;;;;;;5057653;28;20376;-71
2022/09/27 09:44:40;;;;;;;1.92;1.83;;;;;;;;;;5072713;28;20037;-72
2022/09/27 09:47:12;;;;;;;1.73;1.63;;;;;;;;;;5072732;28;20487;-73
2022/09/27 09:49:42;;;;;;;8.75;1.80;;;;;;;;;;5072704;28;20472;-73
2022/09/27 09:52:17;;;;;;;1.77;1.67;;;;;;;;;;5072697;28;20029;-73
2022/09/27 09:54:56;;;;;;;1.70;1.60;;;;;;;;;;5072663;28;20025;-73
2022/09/27 09:57:27;;;;;;;2.05;1.70;;;;;;;;;;5057193;28;20369;-73
2022/09/27 10:00:06;;;;;;;1.60;1.50;;;;;;;;;;5072597;28;20078;-73
2022/09/27 10:02:42;;;;;;;1.60;1.50;;;;;;;;;;5057110;28;20041;-73
2022/09/27 10:05:17;;;;;;;1.20;1.20;;;;;;;;;;5072550;28;20036;-72
2022/09/27 10:07:44;;;;;;;1.33;1.17;;;;;;;;;;5072364;28;20033;-73
2022/09/27 10:10:15;;;;;;;1.50;1.40;;;;;;;;;;5072405;28;20129;-72
2022/09/27 10:13:01;;;;;;;1.25;1.25;;;;;;;;;;5057199;28;20031;-72
2022/09/27 10:15:30;;;;;;;1.30;1.20;;;;;;;;;;5072258;28;20078;-72
2022/09/27 10:17:56;;;;;;;1.92;1.40;;;;;;;;;;5056847;28;20025;-72
2022/09/27 10:20:22;;;;;;;1.17;1.17;;;;;;;;;;5072120;28;20031;-72
2022/09/27 10:22:53;;;;;;;3.95;1.45;;;;;;;;;;5055661;28;20103;-72
2022/09/27 10:25:44;;;;;;;1.33;1.30;;;;;;;;;;5055703;28;20032;-72
2022/09/27 10:28:36;;;;;;;1.40;1.30;;;;;;;;;;5056587;28;20108;-72
2022/09/27 10:31:06;;;;;;;1.20;1.20;;;;;;;;;;5071933;28;20560;-72
2022/09/27 10:33:39;;;;;;;2.88;1.30;;;;;;;;;;5071967;28;20036;-72
2022/09/27 10:36:21;;;;;;;1.50;1.40;;;;;;;;;;5071913;28;20383;-73
2022/09/27 10:38:53;;;;;;;1.30;1.30;;;;;;;;;;5055166;28;20037;-72
2022/09/27 10:41:35;;;;;;;1.30;1.30;;;;;;;;;;5056332;28;20037;-73
2022/09/27 10:44:16;;;;;;;1.45;1.40;;;;;;;;;;5056501;28;20064;-73
2022/09/27 10:46:47;;;;;;;1.10;1.08;;;;;;;;;;5054520;28;20399;-74
2022/09/27 10:49:32;;;;;;;1.45;1.35;;;;;;;;;;5035492;28;20463;-74
2022/09/27 10:52:20;;;;;;;1.40;1.40;;;;;;;;;;5071564;28;20430;-73
2022/09/27 10:54:56;;;;;;;1.30;1.20;;;;;;;;;;5054487;28;20041;-73
2022/09/27 10:57:32;;;;;;;1.55;1.40;;;;;;;;;;5055012;28;20024;-71
2022/09/27 11:00:01;;;;;;;1.65;1.38;;;;;;;;;;5054910;28;20368;-73
2022/09/27 11:02:31;;;;;;;1.45;1.38;;;;;;;;;;5054765;28;20191;-72
2022/09/27 11:05:06;;;;;;;2.20;2.05;;;;;;;;;;5054818;28;20031;-73
2022/09/27 11:07:34;;;;;;;1.35;1.20;;;;;;;;;;5071280;28;20037;-73
2022/09/27 11:10:31;;;;;;;1.58;1.48;;;;;;;;;;5071265;28;20021;-72
2022/09/27 11:13:18;;;;;;;1.90;1.80;;;;;;;;;;5052617;28;20044;-73
2022/09/27 11:15:50;;;;;;;1.75;1.65;;;;;;;;;;5054510;28;20040;-73
2022/09/27 11:18:41;;;;;;;2.10;2.00;;;;;;;;;;5071063;28;20502;-73
2022/09/27 11:21:13;;;;;;;1.92;1.83;;;;;;;;;;5051627;28;20502;-72
2022/09/27 11:23:42;;;;;;;1.75;1.65;;;;;;;;;;5054352;28;20147;-73
2022/09/27 11:26:20;;;;;;;1.45;1.38;;;;;;;;;;5038581;28;20021;-73
2022/09/27 11:28:45;;;;;;;2.00;1.90;;;;;;;;;;5055484;28;20407;-73
2022/09/27 11:32:01;;;;;;;2.92;1.63;;;;;;;;;;5070833;28;20013;-73
2022/09/27 11:34:46;;;;;;;1.60;1.50;;;;;;;;;;4997186;28;20034;-73
2022/09/27 11:37:15;;;;;;;1.98;1.83;;;;;;;;;;4997134;28;20469;-73
2022/09/27 11:39:41;;;;;;;1.90;1.80;;;;;;;;;;5031700;28;20033;-73
2022/09/27 11:42:27;;;;;;;2.65;1.52;;;;;;;;;;5054068;28;20279;-72
2022/09/27 11:44:52;;;;;;;2.20;1.60;;;;;;;;;;5061013;28;20051;-73
2022/09/27 11:47:26;;;;;;;2.08;1.98;;;;;;;;;;5073697;28;20117;-72
2022/09/27 11:49:52;;;;;;;1.83;1.73;;;;;;;;;;5073841;28;20028;-73
2022/09/27 11:52:26;;;;;;;2.00;1.90;;;;;;;;;;5040694;28;20017;-73
2022/09/27 11:55:07;;;;;;;2.00;1.90;;;;;;;;;;5057076;28;20036;-72
2022/09/27 11:57:39;;;;;;;1.90;1.80;;;;;;;;;;5057077;28;20386;-72
2022/09/27 12:00:19;;;;;;;1.73;1.63;;;;;;;;;;5073648;28;20029;-73
2022/09/27 12:03:03;;;;;;;1.90;1.80;;;;;;;;;;5073778;28;20025;-73
2022/09/27 12:05:41;;;;;;;1.70;1.60;;;;;;;;;;5040343;28;20039;-73
2022/09/27 12:08:15;;;;;;;2.00;1.67;;;;;;;;;;5056668;28;20025;-73
2022/09/27 12:10:45;;;;;;;1.75;1.65;;;;;;;;;;5056742;28;20032;-74
2022/09/27 12:13:11;;;;;;;2.30;2.10;;;;;;;;;;5074599;28;20459;-73
2022/09/27 12:15:40;;;;;;;1.92;1.83;;;;;;;;;;5040325;28;20032;-72
2022/09/27 12:18:13;;;;;;;1.67;1.58;;;;;;;;;;5056564;28;20024;-73
2022/09/27 12:20:40;;;;;;;2.15;1.95;;;;;;;;;;5073435;28;20119;-72
2022/09/27 12:23:34;;;;;;;1.85;1.75;;;;;;;;;;5073171;28;20025;-74
2022/09/27 12:26:27;;;;;;;2.17;2.03;;;;;;;;;;5047473;28;20044;-72
2022/09/27 12:29:16;;;;;;;2.50;2.08;;;;;;;;;;5045731;28;20131;-73
2022/09/27 12:31:45;;;;;;;2.10;2.00;;;;;;;;;;5048213;28;20045;-73
2022/09/27 12:34:32;;;;;;;2.22;2.03;;;;;;;;;;5072908;28;20025;-72
2022/09/27 12:37:16;;;;;;;2.30;1.65;;;;;;;;;;5056262;28;20024;-73
2022/09/27 12:39:51;;;;;;;1.88;1.77;;;;;;;;;;5073115;28;20035;-73
2022/09/27 12:42:41;;;;;;;2.10;2.00;;;;;;;;;;5056188;28;20382;-73
2022/09/27 12:45:16;;;;;;;2.30;2.10;;;;;;;;;;5073978;28;20099;-72
2022/09/27 12:47:57;;;;;;;2.45;2.30;;;;;;;;;;5056413;28;20119;-73
2022/09/27 12:50:29;;;;;;;2.47;2.22;;;;;;;;;;5056057;28;20406;-73
2022/09/27 12:53:03;;;;;;;2.78;2.38;;;;;;;;;;5056292;28;20039;-73
2022/09/27 12:55:38;;;;;;;2.38;2.28;;;;;;;;;;5072627;28;20021;-73
2022/09/27 12:58:07;;;;;;;2.85;2.70;;;;;;;;;;5073787;28;20031;-73
2022/09/27 13:00:40;;;;;;;3.47;3.13;;;;;;;;;;5071800;28;20383;-72
2022/09/27 13:03:26;;;;;;;4.15;3.80;;;;;;;;;;5054802;28;20043;-73
2022/09/27 13:06:16;;;;;;;5.00;4.50;;;;;;;;;;5071383;28;20070;-73
2022/09/27 13:09:01;;;;;;;5.53;5.03;;;;;;;;;;5071125;28;20032;-73
2022/09/27 13:12:00;;;;;;;3.45;3.15;;;;;;;;;;5071380;28;20025;-73
2022/09/27 13:14:27;;;;;;;2.90;2.70;;;;;;;;;;5042065;28;20482;-73
2022/09/27 13:16:53;;;;;;;3.00;2.70;;;;;;;;;;5071310;28;20052;-73
2022/09/27 13:19:35;;;;;;;2.83;2.60;;;;;;;;;;5070888;28;20027;-74
2022/09/27 13:22:03;;;;;;;3.92;2.70;;;;;;;;;;5054640;28;20032;-73
2022/09/27 13:24:40;;;;;;;3.25;2.90;;;;;;;;;;5072553;28;20036;-73
2022/09/27 13:27:34;;;;;;;3.53;3.22;;;;;;;;;;5072333;28;20029;-72
2022/09/27 13:30:11;;;;;;;3.63;3.33;;;;;;;;;;5054401;28;20039;-73
2022/09/27 13:32:39;;;;;;;6.18;2.70;;;;;;;;;;5070871;28;20027;-74
2022/09/27 13:35:23;;;;;;;2.65;2.55;;;;;;;;;;5072128;28;20371;-74
2022/09/27 13:37:58;;;;;;;3.22;2.83;;;;;;;;;;5071322;28;20036;-73
2022/09/27 13:40:32;;;;;;;3.60;2.78;;;;;;;;;;5070825;28;20028;-73
2022/09/27 13:43:40;;;;;;;2.88;2.67;;;;;;;;;;5072513;28;20055;-72
2022/09/27 13:46:19;;;;;;;2.75;2.55;;;;;;;;;;5053812;28;20044;-73
2022/09/27 13:49:13;;;;;;;3.25;2.65;;;;;;;;;;5038004;28;20086;-72
2022/09/27 13:52:02;;;;;;;2.80;2.47;;;;;;;;;;5072390;28;20040;-74
2022/09/27 13:54:33;;;;;;;11.52;10.15;;;;;;;;;;5054148;28;20043;-73
2022/09/27 13:57:01;;;;;;;3.42;3.13;;;;;;;;;;5070490;28;20506;-75
2022/09/27 13:59:55;;;;;;;5.60;5.13;;;;;;;;;;5070939;28;20497;-73
2022/09/27 14:02:53;;;;;;;2.90;2.72;;;;;;;;;;5071904;28;20044;-73
2022/09/27 14:05:21;;;;;;;2.92;2.80;;;;;;;;;;5070793;28;20051;-74
2022/09/27 14:07:48;;;;;;;3.10;2.90;;;;;;;;;;5054041;28;20474;-72
2022/09/27 14:10:17;;;;;;;2.95;2.72;;;;;;;;;;5054111;28;20510;-73
2022/09/27 14:12:44;;;;;;;2.70;2.50;;;;;;;;;;5054015;28;20016;-72
2022/09/27 14:15:17;;;;;;;2.83;2.63;;;;;;;;;;5070762;28;20031;-74
2022/09/27 14:17:45;;;;;;;3.17;2.88;;;;;;;;;;5037185;28;20032;-72
2022/09/27 14:20:33;;;;;;;3.22;2.92;;;;;;;;;;5071882;28;20483;-71
2022/09/27 14:23:01;;;;;;;14.75;7.47;;;;;;;;;;5074581;28;20516;-72
2022/09/27 14:25:31;;;;;;;3.53;3.25;;;;;;;;;;5074451;28;20017;-72
2022/09/27 14:27:59;;;;;;;2.00;1.90;;;;;;;;;;5040611;28;20055;-72
2022/09/27 14:30:34;;;;;;;2.50;2.30;;;;;;;;;;5075231;28;20028;-71
2022/09/27 14:33:30;;;;;;;3.95;2.35;;;;;;;;;;5074175;28;20117;-71
2022/09/27 14:38:47;;;;;;;2.20;2.10;;;;;;;;;;5053749;28;20059;-73
2022/09/27 14:41:33;;;;;;;2.10;1.90;;;;;;;;;;5070323;28;20062;-72
2022/09/27 14:43:59;;;;;;;2.55;2.20;;;;;;;;;;5071129;28;20032;-72
2022/09/27 14:46:26;;;;;;;2.22;2.03;;;;;;;;;;5049521;28;20069;-73
2022/09/27 14:48:52;;;;;;;3.20;2.20;;;;;;;;;;5051221;28;20485;-70
2022/09/27 14:51:19;;;;;;;2.67;2.40;;;;;;;;;;5050885;28;20412;-69
2022/09/27 14:53:46;;;;;;;3.33;2.65;;;;;;;;;;5051606;28;20033;-71
2022/09/27 14:56:16;;;;;;;2.33;2.13;;;;;;;;;;5049227;28;20012;-69
2022/09/27 14:58:44;;;;;;;2.78;2.58;;;;;;;;;;5048558;28;20044;-67
2022/09/27 15:01:16;;;;;;;2.97;2.67;;;;;;;;;;5051413;28;20478;-69
2022/09/27 15:03:43;;;;;;;2.80;2.60;;;;;;;;;;5054540;28;20057;-70
2022/09/27 15:06:08;;;;;;;2.83;2.60;;;;;;;;;;5055320;28;20017;-70
2022/09/27 15:08:34;;;;;;;3.85;2.15;;;;;;;;;;5055870;28;20052;-71
2022/09/27 15:11:04;;;;;;;2.67;2.10;;;;;;;;;;5055828;28;20027;-72
2022/09/27 15:13:30;;;;;;;2.40;2.20;;;;;;;;;;5055824;28;20021;-71
2022/09/27 15:15:56;;;;;;;2.92;2.13;;;;;;;;;;5055659;28;20371;-72
2022/09/27 15:18:36;;;;;;;2.70;2.50;;;;;;;;;;5055635;28;20112;-71
2022/09/27 15:21:03;;;;;;;2.70;2.47;;;;;;;;;;5055622;28;20028;-70
2022/09/27 15:23:33;;;;;;;0.60;0.60;;;;;;;;;;5070353;28;20111;-70
2022/09/27 15:26:05;;;;;;;1.55;1.45;;;;;;;;;;5055256;28;20069;-70